sensor_id;sensor_type;location;lat;lon;timestamp;pressure;altitude;pressure_sealevel;temperature;humidity
21824;BME280;11074;48.596;9.238;2023-04-06T00:01:38;98513.81;;;5.04;59.99
21824;BME280;11074;48.596;9.238;2023-04-06T00:04:04;98514.84;;;5.03;60.33
21824;BME280;11074;48.596;9.238;2023-04-06T00:06:30;98509.13;;;5.06;60.66
21824;BME280;11074;48.596;9.238;2023-04-06T00:08:56;98505.69;;;4.99;60.79
21824;BME280;11074;48.596;9.238;2023-04-06T00:11:22;98509.75;;;5.08;59.91
21824;BME280;11074;48.596;9.238;2023-04-06T00:13:48;98505.03;;;5.03;59.49
21824;BME280;11074;48.596;9.238;2023-04-06T00:16:13;98506.44;;;5.19;60.46
21824;BME280;11074;48.596;9.238;2023-04-06T00:18:39;98492.22;;;5.07;60.22
21824;BME280;11074;48.596;9.238;2023-04-06T00:21:05;98497.34;;;4.88;60.54
21824;BME280;11074;48.596;9.238;2023-04-06T00:23:31;98491.66;;;4.92;61.21
21824;BME280;11074;48.596;9.238;2023-04-06T00:25:57;98495.28;;;5.04;59.78
21824;BME280;11074;48.596;9.238;2023-04-06T00:28:22;98499.16;;;5.01;59.13
21824;BME280;11074;48.596;9.238;2023-04-06T00:30:52;98489.97;;;5.04;59.98
21824;BME280;11074;48.596;9.238;2023-04-06T00:33:21;98490.19;;;4.96;59.82
21824;BME280;11074;48.596;9.238;2023-04-06T00:35:47;98495.72;;;4.94;61.25
21824;BME280;11074;48.596;9.238;2023-04-06T00:38:13;98492.03;;;5.02;59.82
21824;BME280;11074;48.596;9.238;2023-04-06T00:40:39;98484.34;;;4.80;61.14
21824;BME280;11074;48.596;9.238;2023-04-06T00:43:08;98484.56;;;4.79;62.19
21824;BME280;11074;48.596;9.238;2023-04-06T00:45:34;98492.03;;;4.95;61.42
21824;BME280;11074;48.596;9.238;2023-04-06T00:48:01;98482.84;;;5.11;61.60
21824;BME280;11074;48.596;9.238;2023-04-06T00:50:27;98483.44;;;5.13;61.53
21824;BME280;11074;48.596;9.238;2023-04-06T00:52:54;98484.69;;;5.04;59.97
21824;BME280;11074;48.596;9.238;2023-04-06T00:55:20;98485.34;;;4.86;60.71
21824;BME280;11074;48.596;9.238;2023-04-06T00:57:46;98483.78;;;4.65;61.38
21824;BME280;11074;48.596;9.238;2023-04-06T01:00:13;98480.72;;;4.62;62.49
21824;BME280;11074;48.596;9.238;2023-04-06T01:02:39;98478.59;;;4.90;62.12
21824;BME280;11074;48.596;9.238;2023-04-06T01:05:05;98485.56;;;4.78;60.78
21824;BME280;11074;48.596;9.238;2023-04-06T01:07:31;98475.16;;;4.76;60.81
21824;BME280;11074;48.596;9.238;2023-04-06T01:09:57;98482.13;;;4.64;61.72
21824;BME280;11074;48.596;9.238;2023-04-06T01:12:24;98473.78;;;4.67;60.97
21824;BME280;11074;48.596;9.238;2023-04-06T01:14:50;98476.16;;;4.88;61.35
21824;BME280;11074;48.596;9.238;2023-04-06T01:17:16;98473.94;;;4.92;61.27
21824;BME280;11074;48.596;9.238;2023-04-06T01:19:41;98472.69;;;4.95;61.71
21824;BME280;11074;48.596;9.238;2023-04-06T01:22:07;98469.00;;;4.96;60.85
21824;BME280;11074;48.596;9.238;2023-04-06T01:24:33;98467.81;;;4.85;60.86
21824;BME280;11074;48.596;9.238;2023-04-06T01:26:59;98468.66;;;4.72;60.64
21824;BME280;11074;48.596;9.238;2023-04-06T01:29:26;98469.09;;;4.63;61.71
21824;BME280;11074;48.596;9.238;2023-04-06T01:31:52;98469.72;;;4.58;61.67
21824;BME280;11074;48.596;9.238;2023-04-06T01:34:17;98467.44;;;4.68;61.85
21824;BME280;11074;48.596;9.238;2023-04-06T01:36:43;98463.59;;;4.58;61.26
21824;BME280;11074;48.596;9.238;2023-04-06T01:39:09;98456.31;;;4.47;61.35
21824;BME280;11074;48.596;9.238;2023-04-06T01:41:34;98458.72;;;4.68;61.57
21824;BME280;11074;48.596;9.238;2023-04-06T01:44:02;98461.59;;;4.40;60.66
21824;BME280;11074;48.596;9.238;2023-04-06T01:46:27;98458.53;;;4.37;61.40
21824;BME280;11074;48.596;9.238;2023-04-06T01:48:53;98455.66;;;4.58;62.40
21824;BME280;11074;48.596;9.238;2023-04-06T01:51:19;98461.97;;;4.63;61.66
21824;BME280;11074;48.596;9.238;2023-04-06T01:53:45;98458.16;;;4.33;61.39
21824;BME280;11074;48.596;9.238;2023-04-06T01:56:10;98452.66;;;4.08;62.63
21824;BME280;11074;48.596;9.238;2023-04-06T01:58:36;98446.16;;;3.98;63.29
21824;BME280;11074;48.596;9.238;2023-04-06T02:01:02;98460.59;;;4.02;62.54
21824;BME280;11074;48.596;9.238;2023-04-06T02:03:28;98453.06;;;3.92;63.11
21824;BME280;11074;48.596;9.238;2023-04-06T02:05:53;98453.84;;;3.99;62.57
21824;BME280;11074;48.596;9.238;2023-04-06T02:08:19;98452.47;;;4.23;61.94
21824;BME280;11074;48.596;9.238;2023-04-06T02:10:45;98449.41;;;4.19;62.05
21824;BME280;11074;48.596;9.238;2023-04-06T02:13:10;98451.84;;;4.08;62.49
21824;BME280;11074;48.596;9.238;2023-04-06T02:15:36;98445.53;;;4.02;61.58
21824;BME280;11074;48.596;9.238;2023-04-06T02:18:02;98452.84;;;4.26;63.30
21824;BME280;11074;48.596;9.238;2023-04-06T02:20:27;98450.19;;;4.40;62.85
21824;BME280;11074;48.596;9.238;2023-04-06T02:22:53;98453.47;;;4.09;62.43
21824;BME280;11074;48.596;9.238;2023-04-06T02:25:18;98456.72;;;3.98;62.21
21824;BME280;11074;48.596;9.238;2023-04-06T02:27:44;98450.44;;;4.12;63.31
21824;BME280;11074;48.596;9.238;2023-04-06T02:30:10;98448.16;;;4.28;62.91
21824;BME280;11074;48.596;9.238;2023-04-06T02:32:36;98450.19;;;4.26;62.11
21824;BME280;11074;48.596;9.238;2023-04-06T02:35:02;98451.84;;;4.14;62.23
21824;BME280;11074;48.596;9.238;2023-04-06T02:37:27;98447.56;;;4.33;63.50
21824;BME280;11074;48.596;9.238;2023-04-06T02:39:53;98452.44;;;4.16;62.45
21824;BME280;11074;48.596;9.238;2023-04-06T02:42:19;98448.59;;;3.93;63.18
21824;BME280;11074;48.596;9.238;2023-04-06T02:44:44;98442.88;;;3.76;64.20
21824;BME280;11074;48.596;9.238;2023-04-06T02:47:10;98436.56;;;3.71;64.56
21824;BME280;11074;48.596;9.238;2023-04-06T02:49:36;98446.75;;;4.00;64.52
21824;BME280;11074;48.596;9.238;2023-04-06T02:52:02;98441.28;;;4.14;63.74
21824;BME280;11074;48.596;9.238;2023-04-06T02:54:28;98441.06;;;4.16;63.52
21824;BME280;11074;48.596;9.238;2023-04-06T02:56:54;98441.88;;;4.03;63.05
21824;BME280;11074;48.596;9.238;2023-04-06T02:59:20;98439.44;;;4.15;64.02
21824;BME280;11074;48.596;9.238;2023-04-06T03:01:45;98443.72;;;4.09;62.67
21824;BME280;11074;48.596;9.238;2023-04-06T03:04:11;98442.69;;;3.91;63.13
21824;BME280;11074;48.596;9.238;2023-04-06T03:06:37;98441.66;;;3.72;64.03
21824;BME280;11074;48.596;9.238;2023-04-06T03:09:03;98453.22;;;3.71;64.09
21824;BME280;11074;48.596;9.238;2023-04-06T03:11:29;98461.50;;;3.42;65.00
21824;BME280;11074;48.596;9.238;2023-04-06T03:13:54;98449.53;;;3.46;65.14
21824;BME280;11074;48.596;9.238;2023-04-06T03:16:20;98446.94;;;3.72;64.08
21824;BME280;11074;48.596;9.238;2023-04-06T03:18:46;98440.59;;;3.47;64.21
21824;BME280;11074;48.596;9.238;2023-04-06T03:21:13;98447.53;;;3.67;65.11
21824;BME280;11074;48.596;9.238;2023-04-06T03:23:42;98440.84;;;3.72;63.82
21824;BME280;11074;48.596;9.238;2023-04-06T03:26:08;98441.22;;;3.62;63.58
21824;BME280;11074;48.596;9.238;2023-04-06T03:28:34;98449.94;;;3.43;64.07
21824;BME280;11074;48.596;9.238;2023-04-06T03:31:00;98452.28;;;3.18;65.21
21824;BME280;11074;48.596;9.238;2023-04-06T03:33:25;98450.28;;;3.27;64.81
21824;BME280;11074;48.596;9.238;2023-04-06T03:35:54;98455.94;;;3.17;64.77
21824;BME280;11074;48.596;9.238;2023-04-06T03:38:20;98454.53;;;3.21;64.36
21824;BME280;11074;48.596;9.238;2023-04-06T03:40:45;98461.84;;;3.26;64.58
21824;BME280;11074;48.596;9.238;2023-04-06T03:43:11;98460.84;;;3.27;64.56
21824;BME280;11074;48.596;9.238;2023-04-06T03:45:37;98467.13;;;3.19;64.71
21824;BME280;11074;48.596;9.238;2023-04-06T03:48:04;98466.31;;;3.19;64.79
21824;BME280;11074;48.596;9.238;2023-04-06T03:50:30;98460.88;;;3.33;64.56
21824;BME280;11074;48.596;9.238;2023-04-06T03:52:55;98468.75;;;3.14;65.45
21824;BME280;11074;48.596;9.238;2023-04-06T03:55:21;98466.56;;;3.37;65.42
21824;BME280;11074;48.596;9.238;2023-04-06T03:57:47;98473.69;;;3.30;65.42
21824;BME280;11074;48.596;9.238;2023-04-06T04:00:13;98468.78;;;3.27;64.73
21824;BME280;11074;48.596;9.238;2023-04-06T04:02:39;98460.16;;;3.05;65.37
21824;BME280;11074;48.596;9.238;2023-04-06T04:05:05;98467.00;;;2.93;65.99
21824;BME280;11074;48.596;9.238;2023-04-06T04:07:31;98466.97;;;3.27;65.48
21824;BME280;11074;48.596;9.238;2023-04-06T04:09:57;98473.06;;;3.41;64.91
21824;BME280;11074;48.596;9.238;2023-04-06T04:12:22;98475.53;;;3.42;65.22
21824;BME280;11074;48.596;9.238;2023-04-06T04:14:48;98474.75;;;3.48;64.10
21824;BME280;11074;48.596;9.238;2023-04-06T04:17:14;98479.41;;;3.46;64.28
21824;BME280;11074;48.596;9.238;2023-04-06T04:19:39;98484.03;;;3.31;63.56
21824;BME280;11074;48.596;9.238;2023-04-06T04:22:05;98487.22;;;3.14;64.69
21824;BME280;11074;48.596;9.238;2023-04-06T04:24:32;98481.88;;;3.00;64.88
21824;BME280;11074;48.596;9.238;2023-04-06T04:26:59;98481.56;;;3.23;65.35
21824;BME280;11074;48.596;9.238;2023-04-06T04:29:26;98486.88;;;3.36;64.77
21824;BME280;11074;48.596;9.238;2023-04-06T04:31:52;98475.69;;;3.28;63.30
21824;BME280;11074;48.596;9.238;2023-04-06T04:34:18;98484.75;;;3.05;64.84
21824;BME280;11074;48.596;9.238;2023-04-06T04:36:49;98486.41;;;3.13;66.31
21824;BME280;11074;48.596;9.238;2023-04-06T04:39:14;98486.06;;;2.82;65.70
21824;BME280;11074;48.596;9.238;2023-04-06T04:41:40;98482.22;;;2.91;65.86
21824;BME280;11074;48.596;9.238;2023-04-06T04:44:06;98490.84;;;3.06;65.62
21824;BME280;11074;48.596;9.238;2023-04-06T04:46:32;98484.19;;;3.23;65.56
21824;BME280;11074;48.596;9.238;2023-04-06T04:48:57;98488.00;;;3.14;64.70
21824;BME280;11074;48.596;9.238;2023-04-06T04:51:23;98490.38;;;2.96;65.45
21824;BME280;11074;48.596;9.238;2023-04-06T04:53:50;98493.97;;;2.82;65.59
21824;BME280;11074;48.596;9.238;2023-04-06T04:56:15;98489.09;;;2.85;66.70
21824;BME280;11074;48.596;9.238;2023-04-06T04:58:41;98492.00;;;2.97;65.38
21824;BME280;11074;48.596;9.238;2023-04-06T05:01:08;98488.28;;;2.85;65.22
21824;BME280;11074;48.596;9.238;2023-04-06T05:03:34;98494.06;;;3.01;66.23
21824;BME280;11074;48.596;9.238;2023-04-06T05:06:01;98496.97;;;3.13;65.81
21824;BME280;11074;48.596;9.238;2023-04-06T05:08:27;98497.91;;;2.99;64.75
21824;BME280;11074;48.596;9.238;2023-04-06T05:10:53;98488.59;;;3.03;65.33
21824;BME280;11074;48.596;9.238;2023-04-06T05:13:18;98502.53;;;2.90;65.60
21824;BME280;11074;48.596;9.238;2023-04-06T05:15:44;98499.09;;;2.90;65.32
21824;BME280;11074;48.596;9.238;2023-04-06T05:18:16;98505.75;;;2.86;65.96
21824;BME280;11074;48.596;9.238;2023-04-06T05:20:42;98505.53;;;2.81;66.48
21824;BME280;11074;48.596;9.238;2023-04-06T05:23:08;98515.63;;;2.71;66.56
21824;BME280;11074;48.596;9.238;2023-04-06T05:25:34;98523.47;;;2.64;66.33
21824;BME280;11074;48.596;9.238;2023-04-06T05:28:00;98516.63;;;2.70;66.01
21824;BME280;11074;48.596;9.238;2023-04-06T05:30:25;98516.47;;;2.78;65.55
21824;BME280;11074;48.596;9.238;2023-04-06T05:32:51;98523.41;;;2.85;65.84
21824;BME280;11074;48.596;9.238;2023-04-06T05:35:17;98515.72;;;2.90;65.30
21824;BME280;11074;48.596;9.238;2023-04-06T05:37:43;98523.84;;;2.89;65.44
21824;BME280;11074;48.596;9.238;2023-04-06T05:40:09;98524.22;;;2.79;66.65
21824;BME280;11074;48.596;9.238;2023-04-06T05:42:39;98520.38;;;2.82;66.32
21824;BME280;11074;48.596;9.238;2023-04-06T05:45:07;98523.03;;;2.88;66.11
21824;BME280;11074;48.596;9.238;2023-04-06T05:47:33;98524.91;;;3.01;66.06
21824;BME280;11074;48.596;9.238;2023-04-06T05:49:59;98526.41;;;3.10;66.17
21824;BME280;11074;48.596;9.238;2023-04-06T05:52:25;98523.22;;;3.21;66.13
21824;BME280;11074;48.596;9.238;2023-04-06T05:54:51;98528.72;;;3.26;66.33
21824;BME280;11074;48.596;9.238;2023-04-06T05:57:16;98532.84;;;3.35;66.58
21824;BME280;11074;48.596;9.238;2023-04-06T05:59:42;98532.63;;;3.43;66.52
21824;BME280;11074;48.596;9.238;2023-04-06T06:02:08;98535.53;;;3.48;66.32
21824;BME280;11074;48.596;9.238;2023-04-06T06:04:34;98537.13;;;3.49;66.35
21824;BME280;11074;48.596;9.238;2023-04-06T06:07:00;98532.69;;;3.50;66.38
21824;BME280;11074;48.596;9.238;2023-04-06T06:09:25;98528.03;;;3.58;66.55
21824;BME280;11074;48.596;9.238;2023-04-06T06:11:51;98537.00;;;3.64;66.27
21824;BME280;11074;48.596;9.238;2023-04-06T06:14:17;98534.38;;;3.71;66.67
21824;BME280;11074;48.596;9.238;2023-04-06T06:16:43;98539.69;;;3.77;66.44
21824;BME280;11074;48.596;9.238;2023-04-06T06:19:08;98536.22;;;3.77;65.93
21824;BME280;11074;48.596;9.238;2023-04-06T06:21:34;98538.25;;;3.81;66.39
21824;BME280;11074;48.596;9.238;2023-04-06T06:24:00;98533.34;;;3.78;66.63
21824;BME280;11074;48.596;9.238;2023-04-06T06:26:26;98528.50;;;3.75;66.28
21824;BME280;11074;48.596;9.238;2023-04-06T06:28:51;98533.97;;;3.74;66.63
21824;BME280;11074;48.596;9.238;2023-04-06T06:31:17;98539.47;;;3.72;67.02
21824;BME280;11074;48.596;9.238;2023-04-06T06:33:46;98536.25;;;3.90;66.70
21824;BME280;11074;48.596;9.238;2023-04-06T06:36:13;98529.38;;;4.02;66.50
21824;BME280;11074;48.596;9.238;2023-04-06T06:38:38;98531.59;;;4.05;66.60
21824;BME280;11074;48.596;9.238;2023-04-06T06:41:04;98538.28;;;3.88;66.97
21824;BME280;11074;48.596;9.238;2023-04-06T06:43:30;98543.56;;;3.94;66.86
21824;BME280;11074;48.596;9.238;2023-04-06T06:45:56;98538.50;;;3.99;66.89
21824;BME280;11074;48.596;9.238;2023-04-06T06:48:21;98537.09;;;4.03;66.69
21824;BME280;11074;48.596;9.238;2023-04-06T06:50:48;98536.28;;;4.09;66.31
21824;BME280;11074;48.596;9.238;2023-04-06T06:53:14;98534.03;;;4.13;65.98
21824;BME280;11074;48.596;9.238;2023-04-06T06:55:40;98535.06;;;4.18;66.07
21824;BME280;11074;48.596;9.238;2023-04-06T06:58:05;98534.88;;;4.26;66.19
21824;BME280;11074;48.596;9.238;2023-04-06T07:00:32;98541.38;;;4.37;66.19
21824;BME280;11074;48.596;9.238;2023-04-06T07:02:57;98535.50;;;4.42;65.55
21824;BME280;11074;48.596;9.238;2023-04-06T07:05:23;98539.56;;;4.44;66.15
21824;BME280;11074;48.596;9.238;2023-04-06T07:07:49;98535.91;;;4.45;65.37
21824;BME280;11074;48.596;9.238;2023-04-06T07:10:14;98543.84;;;4.52;65.37
21824;BME280;11074;48.596;9.238;2023-04-06T07:12:40;98540.59;;;4.56;65.55
21824;BME280;11074;48.596;9.238;2023-04-06T07:15:06;98541.00;;;4.60;64.94
21824;BME280;11074;48.596;9.238;2023-04-06T07:17:32;98533.25;;;4.65;65.42
21824;BME280;11074;48.596;9.238;2023-04-06T07:19:58;98534.06;;;4.65;65.37
21824;BME280;11074;48.596;9.238;2023-04-06T07:22:23;98534.06;;;4.65;65.46
21824;BME280;11074;48.596;9.238;2023-04-06T07:24:49;98537.72;;;4.71;64.51
21824;BME280;11074;48.596;9.238;2023-04-06T07:27:15;98534.25;;;4.77;64.45
21824;BME280;11074;48.596;9.238;2023-04-06T07:29:41;98534.66;;;4.74;64.20
21824;BME280;11074;48.596;9.238;2023-04-06T07:32:07;98531.22;;;4.73;64.65
21824;BME280;11074;48.596;9.238;2023-04-06T07:34:33;98538.72;;;4.83;64.35
21824;BME280;11074;48.596;9.238;2023-04-06T07:36:59;98532.59;;;4.89;64.30
21824;BME280;11074;48.596;9.238;2023-04-06T07:39:26;98527.69;;;4.93;64.54
21824;BME280;11074;48.596;9.238;2023-04-06T07:41:52;98526.28;;;4.97;64.28
21824;BME280;11074;48.596;9.238;2023-04-06T07:44:18;98525.22;;;5.04;64.14
21824;BME280;11074;48.596;9.238;2023-04-06T07:46:44;98524.78;;;5.14;63.68
21824;BME280;11074;48.596;9.238;2023-04-06T07:49:09;98526.63;;;5.20;64.32
21824;BME280;11074;48.596;9.238;2023-04-06T07:51:37;98519.66;;;5.25;63.75
21824;BME280;11074;48.596;9.238;2023-04-06T07:54:03;98521.50;;;5.31;63.15
21824;BME280;11074;48.596;9.238;2023-04-06T07:56:29;98521.03;;;5.41;63.30
21824;BME280;11074;48.596;9.238;2023-04-06T07:58:55;98517.97;;;5.44;63.07
21824;BME280;11074;48.596;9.238;2023-04-06T08:01:22;98520.59;;;5.50;62.69
21824;BME280;11074;48.596;9.238;2023-04-06T08:03:48;98517.09;;;5.57;63.30
21824;BME280;11074;48.596;9.238;2023-04-06T08:06:14;98512.78;;;5.62;62.03
21824;BME280;11074;48.596;9.238;2023-04-06T08:08:41;98514.00;;;5.66;63.22
21824;BME280;11074;48.596;9.238;2023-04-06T08:11:07;98519.25;;;5.73;62.14
21824;BME280;11074;48.596;9.238;2023-04-06T08:13:34;98511.69;;;5.76;62.10
21824;BME280;11074;48.596;9.238;2023-04-06T08:16:00;98514.09;;;5.84;62.24
21824;BME280;11074;48.596;9.238;2023-04-06T08:18:26;98519.81;;;5.88;61.31
21824;BME280;11074;48.596;9.238;2023-04-06T08:20:52;98508.16;;;5.95;60.50
21824;BME280;11074;48.596;9.238;2023-04-06T08:23:19;98509.72;;;6.03;60.16
21824;BME280;11074;48.596;9.238;2023-04-06T08:25:45;98508.25;;;6.07;61.08
21824;BME280;11074;48.596;9.238;2023-04-06T08:28:11;98510.13;;;6.06;60.28
21824;BME280;11074;48.596;9.238;2023-04-06T08:30:39;98509.41;;;6.18;59.70
21824;BME280;11074;48.596;9.238;2023-04-06T08:33:06;98513.81;;;6.30;59.17
21824;BME280;11074;48.596;9.238;2023-04-06T08:35:31;98505.34;;;6.40;58.63
21824;BME280;11074;48.596;9.238;2023-04-06T08:37:57;98501.63;;;6.47;57.99
21824;BME280;11074;48.596;9.238;2023-04-06T08:40:23;98509.31;;;6.55;58.60
21824;BME280;11074;48.596;9.238;2023-04-06T08:42:54;98506.44;;;6.57;57.18
21824;BME280;11074;48.596;9.238;2023-04-06T08:45:20;98497.00;;;6.61;57.10
21824;BME280;11074;48.596;9.238;2023-04-06T08:47:49;98491.69;;;6.61;56.89
21824;BME280;11074;48.596;9.238;2023-04-06T08:50:17;98493.88;;;6.70;55.97
21824;BME280;11074;48.596;9.238;2023-04-06T08:52:46;98490.69;;;6.80;56.19
21824;BME280;11074;48.596;9.238;2023-04-06T08:55:12;98493.25;;;6.87;56.32
21824;BME280;11074;48.596;9.238;2023-04-06T08:57:39;98492.78;;;6.96;55.20
21824;BME280;11074;48.596;9.238;2023-04-06T09:00:07;98475.47;;;7.05;54.38
21824;BME280;11074;48.596;9.238;2023-04-06T09:02:40;98481.31;;;7.14;54.96
21824;BME280;11074;48.596;9.238;2023-04-06T09:05:09;98476.53;;;7.22;54.68
21824;BME280;11074;48.596;9.238;2023-04-06T09:07:52;98477.34;;;7.23;54.52
21824;BME280;11074;48.596;9.238;2023-04-06T09:10:18;98474.81;;;7.28;53.69
21824;BME280;11074;48.596;9.238;2023-04-06T09:12:44;98475.69;;;7.40;53.35
21824;BME280;11074;48.596;9.238;2023-04-06T09:15:22;98475.03;;;7.45;52.51
21824;BME280;11074;48.596;9.238;2023-04-06T09:17:47;98470.84;;;7.37;52.41
21824;BME280;11074;48.596;9.238;2023-04-06T09:20:13;98467.69;;;7.40;52.36
21824;BME280;11074;48.596;9.238;2023-04-06T09:22:39;98467.75;;;7.52;51.01
21824;BME280;11074;48.596;9.238;2023-04-06T09:25:06;98465.63;;;7.60;51.47
21824;BME280;11074;48.596;9.238;2023-04-06T09:27:37;98471.50;;;7.62;50.85
21824;BME280;11074;48.596;9.238;2023-04-06T09:30:10;98476.97;;;7.67;49.96
21824;BME280;11074;48.596;9.238;2023-04-06T09:33:09;98473.09;;;7.81;48.60
21824;BME280;11074;48.596;9.238;2023-04-06T09:35:35;98458.06;;;7.87;49.02
21824;BME280;11074;48.596;9.238;2023-04-06T09:38:11;98455.09;;;7.95;50.31
21824;BME280;11074;48.596;9.238;2023-04-06T09:40:49;98451.75;;;8.11;49.84
21824;BME280;11074;48.596;9.238;2023-04-06T09:43:26;98451.75;;;8.23;48.17
21824;BME280;11074;48.596;9.238;2023-04-06T09:45:53;98452.28;;;8.31;47.96
21824;BME280;11074;48.596;9.238;2023-04-06T09:48:21;98456.22;;;8.40;46.80
21824;BME280;11074;48.596;9.238;2023-04-06T09:50:59;98448.09;;;8.47;47.32
21824;BME280;11074;48.596;9.238;2023-04-06T09:53:28;98436.41;;;8.48;46.49
21824;BME280;11074;48.596;9.238;2023-04-06T09:56:02;98446.03;;;8.61;46.92
21824;BME280;11074;48.596;9.238;2023-04-06T09:58:34;98443.25;;;8.67;47.27
21824;BME280;11074;48.596;9.238;2023-04-06T10:01:12;98437.09;;;8.67;46.47
21824;BME280;11074;48.596;9.238;2023-04-06T10:03:58;98433.38;;;8.79;45.92
21824;BME280;11074;48.596;9.238;2023-04-06T10:06:31;98427.13;;;8.85;44.79
21824;BME280;11074;48.596;9.238;2023-04-06T10:08:59;98443.13;;;8.85;45.26
21824;BME280;11074;48.596;9.238;2023-04-06T10:11:25;98441.84;;;8.88;44.02
21824;BME280;11074;48.596;9.238;2023-04-06T10:13:51;98434.88;;;8.98;43.91
21824;BME280;11074;48.596;9.238;2023-04-06T10:16:17;98432.78;;;9.00;41.53
21824;BME280;11074;48.596;9.238;2023-04-06T10:18:52;98434.34;;;9.13;42.65
21824;BME280;11074;48.596;9.238;2023-04-06T10:21:23;98433.75;;;9.23;41.55
21824;BME280;11074;48.596;9.238;2023-04-06T10:23:58;98427.25;;;9.30;41.29
21824;BME280;11074;48.596;9.238;2023-04-06T10:26:24;98427.31;;;9.47;42.46
21824;BME280;11074;48.596;9.238;2023-04-06T10:28:50;98422.63;;;9.54;40.28
21824;BME280;11074;48.596;9.238;2023-04-06T10:31:28;98421.19;;;9.63;39.40
21824;BME280;11074;48.596;9.238;2023-04-06T10:34:01;98417.63;;;9.74;40.70
21824;BME280;11074;48.596;9.238;2023-04-06T10:36:34;98421.72;;;9.77;39.15
21824;BME280;11074;48.596;9.238;2023-04-06T10:39:05;98412.97;;;9.81;40.64
21824;BME280;11074;48.596;9.238;2023-04-06T10:41:40;98403.34;;;9.80;39.83
21824;BME280;11074;48.596;9.238;2023-04-06T10:44:06;98411.25;;;9.75;39.45
21824;BME280;11074;48.596;9.238;2023-04-06T10:46:33;98410.22;;;9.76;39.41
21824;BME280;11074;48.596;9.238;2023-04-06T10:49:12;98399.53;;;9.76;38.58
21824;BME280;11074;48.596;9.238;2023-04-06T10:51:38;98403.69;;;9.84;38.10
21824;BME280;11074;48.596;9.238;2023-04-06T10:54:06;98405.56;;;10.00;38.81
21824;BME280;11074;48.596;9.238;2023-04-06T10:56:32;98391.22;;;10.06;39.11
21824;BME280;11074;48.596;9.238;2023-04-06T10:59:02;98391.31;;;10.11;40.02
21824;BME280;11074;48.596;9.238;2023-04-06T11:01:28;98394.66;;;10.18;39.34
21824;BME280;11074;48.596;9.238;2023-04-06T11:03:56;98398.28;;;10.28;37.86
21824;BME280;11074;48.596;9.238;2023-04-06T11:06:27;98399.50;;;10.38;38.95
21824;BME280;11074;48.596;9.238;2023-04-06T11:08:55;98400.63;;;10.42;35.17
21824;BME280;11074;48.596;9.238;2023-04-06T11:11:24;98390.25;;;10.45;35.42
21824;BME280;11074;48.596;9.238;2023-04-06T11:13:53;98397.28;;;10.51;34.27
21824;BME280;11074;48.596;9.238;2023-04-06T11:16:24;98390.13;;;10.57;35.64
21824;BME280;11074;48.596;9.238;2023-04-06T11:18:58;98397.28;;;10.51;35.21
21824;BME280;11074;48.596;9.238;2023-04-06T11:24:23;98383.25;;;10.61;34.67
21824;BME280;11074;48.596;9.238;2023-04-06T11:26:53;98379.47;;;10.78;35.40
21824;BME280;11074;48.596;9.238;2023-04-06T11:29:25;98379.78;;;10.82;34.33
21824;BME280;11074;48.596;9.238;2023-04-06T11:32:02;98382.53;;;10.87;34.76
21824;BME280;11074;48.596;9.238;2023-04-06T11:34:30;98370.97;;;11.03;34.27
21824;BME280;11074;48.596;9.238;2023-04-06T11:37:01;98373.00;;;11.18;33.76
21824;BME280;11074;48.596;9.238;2023-04-06T11:39:29;98364.19;;;11.44;33.95
21824;BME280;11074;48.596;9.238;2023-04-06T11:42:02;98353.56;;;11.76;33.85
21824;BME280;11074;48.596;9.238;2023-04-06T11:44:40;98355.78;;;12.21;34.73
21824;BME280;11074;48.596;9.238;2023-04-06T11:47:10;98351.41;;;12.51;33.21
21824;BME280;11074;48.596;9.238;2023-04-06T11:49:41;98349.28;;;12.53;31.94
21824;BME280;11074;48.596;9.238;2023-04-06T11:52:23;98349.94;;;12.81;31.17
21824;BME280;11074;48.596;9.238;2023-04-06T11:54:51;98347.59;;;12.94;31.01
21824;BME280;11074;48.596;9.238;2023-04-06T11:57:21;98331.59;;;13.14;30.62
21824;BME280;11074;48.596;9.238;2023-04-06T11:59:51;98338.84;;;13.19;30.27
21824;BME280;11074;48.596;9.238;2023-04-06T12:02:17;98338.63;;;13.35;30.23
21824;BME280;11074;48.596;9.238;2023-04-06T12:04:44;98326.28;;;13.40;30.01
21824;BME280;11074;48.596;9.238;2023-04-06T12:07:10;98328.44;;;13.48;30.37
21824;BME280;11074;48.596;9.238;2023-04-06T12:09:35;98326.28;;;13.50;29.78
21824;BME280;11074;48.596;9.238;2023-04-06T12:12:02;98334.91;;;13.72;29.44
21824;BME280;11074;48.596;9.238;2023-04-06T12:14:29;98325.53;;;14.00;29.14
21824;BME280;11074;48.596;9.238;2023-04-06T12:16:58;98331.16;;;13.88;29.21
21824;BME280;11074;48.596;9.238;2023-04-06T12:19:24;98329.53;;;13.62;27.29
21824;BME280;11074;48.596;9.238;2023-04-06T12:21:52;98321.75;;;13.60;28.03
21824;BME280;11074;48.596;9.238;2023-04-06T12:24:18;98323.09;;;13.78;26.84
21824;BME280;11074;48.596;9.238;2023-04-06T12:26:44;98316.66;;;13.89;26.90
21824;BME280;11074;48.596;9.238;2023-04-06T12:29:10;98307.50;;;14.00;27.55
21824;BME280;11074;48.596;9.238;2023-04-06T12:31:38;98302.09;;;14.20;27.70
21824;BME280;11074;48.596;9.238;2023-04-06T12:34:06;98302.59;;;14.42;27.22
21824;BME280;11074;48.596;9.238;2023-04-06T12:36:32;98300.13;;;14.61;27.51
21824;BME280;11074;48.596;9.238;2023-04-06T12:38:59;98294.69;;;14.81;27.06
21824;BME280;11074;48.596;9.238;2023-04-06T12:41:26;98295.69;;;15.00;27.12
21824;BME280;11074;48.596;9.238;2023-04-06T12:43:52;98292.00;;;14.81;27.83
21824;BME280;11074;48.596;9.238;2023-04-06T12:46:18;98296.59;;;14.76;27.25
21824;BME280;11074;48.596;9.238;2023-04-06T12:48:44;98287.91;;;14.89;26.91
21824;BME280;11074;48.596;9.238;2023-04-06T12:51:10;98289.56;;;14.85;27.25
21824;BME280;11074;48.596;9.238;2023-04-06T12:53:35;98284.38;;;14.93;27.08
21824;BME280;11074;48.596;9.238;2023-04-06T12:56:02;98285.13;;;15.04;26.42
21824;BME280;11074;48.596;9.238;2023-04-06T12:58:28;98288.38;;;15.01;26.93
21824;BME280;11074;48.596;9.238;2023-04-06T13:00:57;98285.63;;;15.16;26.29
21824;BME280;11074;48.596;9.238;2023-04-06T13:03:23;98294.53;;;15.11;26.07
21824;BME280;11074;48.596;9.238;2023-04-06T13:05:52;98286.44;;;15.16;26.20
21824;BME280;11074;48.596;9.238;2023-04-06T13:08:19;98291.00;;;15.16;26.10
21824;BME280;11074;48.596;9.238;2023-04-06T13:10:50;98286.97;;;15.18;25.43
21824;BME280;11074;48.596;9.238;2023-04-06T13:13:24;98282.94;;;15.16;25.60